sensor_id;sensor_type;location;lat;lon;timestamp;temperature;humidity
75105;DHT22;63688;47.314;8.466;2022-10-04T00:02:19;20.60;69.60
75105;DHT22;63688;47.314;8.466;2022-10-04T00:04:59;20.60;69.60
75105;DHT22;63688;47.314;8.466;2022-10-04T00:07:34;20.60;69.70
75105;DHT22;63688;47.314;8.466;2022-10-04T00:10:16;20.60;69.70
75105;DHT22;63688;47.314;8.466;2022-10-04T00:12:51;20.60;69.80
75105;DHT22;63688;47.314;8.466;2022-10-04T00:15:29;20.60;69.80
75105;DHT22;63688;47.314;8.466;2022-10-04T00:18:13;20.50;69.60
75105;DHT22;63688;47.314;8.466;2022-10-04T00:21:02;20.50;69.60
75105;DHT22;63688;47.314;8.466;2022-10-04T00:23:46;20.50;69.80
75105;DHT22;63688;47.314;8.466;2022-10-04T00:29:41;20.60;69.70
75105;DHT22;63688;47.314;8.466;2022-10-04T00:32:26;20.50;69.70
75105;DHT22;63688;47.314;8.466;2022-10-04T00:34:58;20.50;69.90
75105;DHT22;63688;47.314;8.466;2022-10-04T00:37:58;20.50;69.90
75105;DHT22;63688;47.314;8.466;2022-10-04T00:40:33;20.50;69.90
75105;DHT22;63688;47.314;8.466;2022-10-04T00:43:14;20.50;69.90
75105;DHT22;63688;47.314;8.466;2022-10-04T00:45:51;20.50;69.90
75105;DHT22;63688;47.314;8.466;2022-10-04T00:48:40;20.50;69.90
75105;DHT22;63688;47.314;8.466;2022-10-04T00:51:20;20.50;69.90
75105;DHT22;63688;47.314;8.466;2022-10-04T00:54:03;20.50;69.90
75105;DHT22;63688;47.314;8.466;2022-10-04T00:56:39;20.50;70.00
75105;DHT22;63688;47.314;8.466;2022-10-04T01:02:15;20.40;69.80
75105;DHT22;63688;47.314;8.466;2022-10-04T01:04:51;20.40;69.80
75105;DHT22;63688;47.314;8.466;2022-10-04T01:07:27;20.40;69.90
75105;DHT22;63688;47.314;8.466;2022-10-04T01:10:11;20.40;69.90
75105;DHT22;63688;47.314;8.466;2022-10-04T01:12:48;20.40;69.90
75105;DHT22;63688;47.314;8.466;2022-10-04T01:15:27;20.40;69.70
75105;DHT22;63688;47.314;8.466;2022-10-04T01:18:13;20.40;69.80
75105;DHT22;63688;47.314;8.466;2022-10-04T01:20:51;20.40;69.80
75105;DHT22;63688;47.314;8.466;2022-10-04T01:23:44;20.40;69.60
75105;DHT22;63688;47.314;8.466;2022-10-04T01:26:37;20.40;69.80
75105;DHT22;63688;47.314;8.466;2022-10-04T01:29:15;20.40;69.70
75105;DHT22;63688;47.314;8.466;2022-10-04T01:31:49;20.40;69.80
75105;DHT22;63688;47.314;8.466;2022-10-04T01:34:25;20.40;70.10
75105;DHT22;63688;47.314;8.466;2022-10-04T01:36:58;20.40;69.70
75105;DHT22;63688;47.314;8.466;2022-10-04T01:39:42;20.30;69.60
75105;DHT22;63688;47.314;8.466;2022-10-04T01:42:17;20.30;69.70
75105;DHT22;63688;47.314;8.466;2022-10-04T01:44:58;20.40;69.70
75105;DHT22;63688;47.314;8.466;2022-10-04T01:47:34;20.40;69.60
75105;DHT22;63688;47.314;8.466;2022-10-04T01:50:18;20.40;69.70
75105;DHT22;63688;47.314;8.466;2022-10-04T01:52:54;20.30;69.70
75105;DHT22;63688;47.314;8.466;2022-10-04T01:58:27;20.30;69.70
75105;DHT22;63688;47.314;8.466;2022-10-04T02:01:06;20.30;69.70
75105;DHT22;63688;47.314;8.466;2022-10-04T02:03:51;20.30;69.60
75105;DHT22;63688;47.314;8.466;2022-10-04T02:06:42;20.30;69.60
75105;DHT22;63688;47.314;8.466;2022-10-04T02:09:17;20.40;69.70
75105;DHT22;63688;47.314;8.466;2022-10-04T02:11:49;20.40;69.80
75105;DHT22;63688;47.314;8.466;2022-10-04T02:14:31;20.30;69.60
75105;DHT22;63688;47.314;8.466;2022-10-04T02:17:06;20.30;69.50
75105;DHT22;63688;47.314;8.466;2022-10-04T02:19:39;20.30;69.40
75105;DHT22;63688;47.314;8.466;2022-10-04T02:22:11;20.30;69.50
75105;DHT22;63688;47.314;8.466;2022-10-04T02:24:46;20.30;69.60
75105;DHT22;63688;47.314;8.466;2022-10-04T02:27:19;20.30;69.70
75105;DHT22;63688;47.314;8.466;2022-10-04T02:29:59;20.30;69.70
75105;DHT22;63688;47.314;8.466;2022-10-04T02:32:38;20.30;69.50
75105;DHT22;63688;47.314;8.466;2022-10-04T02:35:21;20.30;69.50
75105;DHT22;63688;47.314;8.466;2022-10-04T02:38:00;20.30;69.50
75105;DHT22;63688;47.314;8.466;2022-10-04T02:40:38;20.30;69.60
75105;DHT22;63688;47.314;8.466;2022-10-04T02:43:15;20.30;69.60
75105;DHT22;63688;47.314;8.466;2022-10-04T02:45:55;20.30;69.90
75105;DHT22;63688;47.314;8.466;2022-10-04T02:48:46;20.30;69.50
75105;DHT22;63688;47.314;8.466;2022-10-04T02:51:20;20.30;69.50
75105;DHT22;63688;47.314;8.466;2022-10-04T02:54:02;20.30;69.30
75105;DHT22;63688;47.314;8.466;2022-10-04T02:56:36;20.30;69.30
75105;DHT22;63688;47.314;8.466;2022-10-04T02:59:14;20.30;69.20
75105;DHT22;63688;47.314;8.466;2022-10-04T03:01:54;20.30;69.10
75105;DHT22;63688;47.314;8.466;2022-10-04T03:04:37;20.30;69.10
75105;DHT22;63688;47.314;8.466;2022-10-04T03:07:09;20.30;69.30
75105;DHT22;63688;47.314;8.466;2022-10-04T03:09:42;20.30;69.20
75105;DHT22;63688;47.314;8.466;2022-10-04T03:12:14;20.30;69.10
75105;DHT22;63688;47.314;8.466;2022-10-04T03:14:47;20.30;69.10
75105;DHT22;63688;47.314;8.466;2022-10-04T03:17:24;20.30;69.20
75105;DHT22;63688;47.314;8.466;2022-10-04T03:19:55;20.30;69.60
75105;DHT22;63688;47.314;8.466;2022-10-04T03:22:28;20.30;69.10
75105;DHT22;63688;47.314;8.466;2022-10-04T03:25:00;20.30;69.10
75105;DHT22;63688;47.314;8.466;2022-10-04T03:27:33;20.20;69.10
75105;DHT22;63688;47.314;8.466;2022-10-04T03:30:10;20.30;69.10
75105;DHT22;63688;47.314;8.466;2022-10-04T03:32:49;20.30;69.00
75105;DHT22;63688;47.314;8.466;2022-10-04T03:35:28;20.30;69.00
75105;DHT22;63688;47.314;8.466;2022-10-04T03:38:03;20.30;69.00
75105;DHT22;63688;47.314;8.466;2022-10-04T03:40:41;20.20;68.80
75105;DHT22;63688;47.314;8.466;2022-10-04T03:43:16;20.30;68.90
75105;DHT22;63688;47.314;8.466;2022-10-04T03:46:03;20.30;68.90
75105;DHT22;63688;47.314;8.466;2022-10-04T03:48:45;20.20;68.90
75105;DHT22;63688;47.314;8.466;2022-10-04T03:51:20;20.20;68.80
75105;DHT22;63688;47.314;8.466;2022-10-04T03:53:54;20.30;68.80
75105;DHT22;63688;47.314;8.466;2022-10-04T03:56:35;20.20;68.80
75105;DHT22;63688;47.314;8.466;2022-10-04T03:59:09;20.20;68.80
75105;DHT22;63688;47.314;8.466;2022-10-04T04:01:45;20.20;68.80
75105;DHT22;63688;47.314;8.466;2022-10-04T04:04:32;20.20;68.80
75105;DHT22;63688;47.314;8.466;2022-10-04T04:07:18;20.20;68.70
75105;DHT22;63688;47.314;8.466;2022-10-04T04:09:53;20.20;68.80
75105;DHT22;63688;47.314;8.466;2022-10-04T04:12:36;20.20;68.70
75105;DHT22;63688;47.314;8.466;2022-10-04T04:15:10;20.20;68.70
75105;DHT22;63688;47.314;8.466;2022-10-04T04:17:58;20.20;68.60
75105;DHT22;63688;47.314;8.466;2022-10-04T04:20:41;20.20;68.70
75105;DHT22;63688;47.314;8.466;2022-10-04T04:23:28;20.20;68.60
75105;DHT22;63688;47.314;8.466;2022-10-04T04:26:13;20.20;68.60
75105;DHT22;63688;47.314;8.466;2022-10-04T04:28:51;20.20;68.60
75105;DHT22;63688;47.314;8.466;2022-10-04T04:31:25;20.20;68.50
75105;DHT22;63688;47.314;8.466;2022-10-04T04:34:00;20.20;68.50
75105;DHT22;63688;47.314;8.466;2022-10-04T04:36:56;20.20;68.40
75105;DHT22;63688;47.314;8.466;2022-10-04T04:39:30;20.20;68.50
75105;DHT22;63688;47.314;8.466;2022-10-04T04:42:12;20.20;68.40
75105;DHT22;63688;47.314;8.466;2022-10-04T04:44:48;20.20;68.30
75105;DHT22;63688;47.314;8.466;2022-10-04T04:47:36;20.20;68.30
75105;DHT22;63688;47.314;8.466;2022-10-04T04:50:13;20.20;68.30
75105;DHT22;63688;47.314;8.466;2022-10-04T04:53:02;20.20;68.20
75105;DHT22;63688;47.314;8.466;2022-10-04T04:55:38;20.20;68.20
75105;DHT22;63688;47.314;8.466;2022-10-04T04:58:16;20.20;68.10
75105;DHT22;63688;47.314;8.466;2022-10-04T05:00:54;20.20;68.20
75105;DHT22;63688;47.314;8.466;2022-10-04T05:03:26;20.20;68.30
75105;DHT22;63688;47.314;8.466;2022-10-04T05:05:59;20.20;68.40
75105;DHT22;63688;47.314;8.466;2022-10-04T05:08:37;20.20;68.30
75105;DHT22;63688;47.314;8.466;2022-10-04T05:11:12;20.20;68.20
75105;DHT22;63688;47.314;8.466;2022-10-04T05:13:51;20.20;68.20
75105;DHT22;63688;47.314;8.466;2022-10-04T05:16:26;20.30;68.10
75105;DHT22;63688;47.314;8.466;2022-10-04T05:19:02;20.20;68.00
75105;DHT22;63688;47.314;8.466;2022-10-04T05:21:36;20.20;67.90
75105;DHT22;63688;47.314;8.466;2022-10-04T05:24:20;20.20;67.90
75105;DHT22;63688;47.314;8.466;2022-10-04T05:26:54;20.20;67.90
75105;DHT22;63688;47.314;8.466;2022-10-04T05:29:48;20.20;67.90
75105;DHT22;63688;47.314;8.466;2022-10-04T05:32:28;20.20;68.00
75105;DHT22;63688;47.314;8.466;2022-10-04T05:35:14;20.20;67.90
75105;DHT22;63688;47.314;8.466;2022-10-04T05:38:01;20.20;68.00
75105;DHT22;63688;47.314;8.466;2022-10-04T05:40:48;20.20;68.10
75105;DHT22;63688;47.314;8.466;2022-10-04T05:43:28;20.20;67.90
75105;DHT22;63688;47.314;8.466;2022-10-04T05:46:20;20.20;67.90
75105;DHT22;63688;47.314;8.466;2022-10-04T05:48:57;20.20;67.80
75105;DHT22;63688;47.314;8.466;2022-10-04T05:51:29;20.20;67.70
75105;DHT22;63688;47.314;8.466;2022-10-04T05:54:03;20.20;67.70
75105;DHT22;63688;47.314;8.466;2022-10-04T05:56:56;20.20;67.60
75105;DHT22;63688;47.314;8.466;2022-10-04T05:59:44;20.20;67.60
75105;DHT22;63688;47.314;8.466;2022-10-04T06:02:27;20.20;67.60
75105;DHT22;63688;47.314;8.466;2022-10-04T06:05:10;20.20;67.60
75105;DHT22;63688;47.314;8.466;2022-10-04T06:07:51;20.20;67.50
75105;DHT22;63688;47.314;8.466;2022-10-04T06:10:48;20.20;67.50
75105;DHT22;63688;47.314;8.466;2022-10-04T06:13:44;20.20;67.80
75105;DHT22;63688;47.314;8.466;2022-10-04T06:16:29;20.20;67.40
75105;DHT22;63688;47.314;8.466;2022-10-04T06:19:23;20.20;67.40
75105;DHT22;63688;47.314;8.466;2022-10-04T06:22:08;20.20;67.40
75105;DHT22;63688;47.314;8.466;2022-10-04T06:24:46;20.20;67.30
75105;DHT22;63688;47.314;8.466;2022-10-04T06:27:42;20.20;67.20
75105;DHT22;63688;47.314;8.466;2022-10-04T06:30:22;20.20;67.20
75105;DHT22;63688;47.314;8.466;2022-10-04T06:33:18;20.20;67.20
75105;DHT22;63688;47.314;8.466;2022-10-04T06:48:47;20.30;66.80
75105;DHT22;63688;47.314;8.466;2022-10-04T06:51:41;20.30;66.80
75105;DHT22;63688;47.314;8.466;2022-10-04T06:54:29;20.30;66.70
75105;DHT22;63688;47.314;8.466;2022-10-04T06:57:22;20.30;66.60
75105;DHT22;63688;47.314;8.466;2022-10-04T07:00:13;20.30;66.50
75105;DHT22;63688;47.314;8.466;2022-10-04T07:03:02;20.30;66.40
75105;DHT22;63688;47.314;8.466;2022-10-04T07:05:51;20.30;66.30
75105;DHT22;63688;47.314;8.466;2022-10-04T07:08:32;20.30;66.90
75105;DHT22;63688;47.314;8.466;2022-10-04T07:11:13;20.30;66.40
75105;DHT22;63688;47.314;8.466;2022-10-04T07:13:53;20.30;66.30
75105;DHT22;63688;47.314;8.466;2022-10-04T07:16:32;20.30;66.20
75105;DHT22;63688;47.314;8.466;2022-10-04T07:19:21;20.40;66.00
75105;DHT22;63688;47.314;8.466;2022-10-04T07:22:08;20.40;66.00
75105;DHT22;63688;47.314;8.466;2022-10-04T07:24:48;20.40;65.90
75105;DHT22;63688;47.314;8.466;2022-10-04T07:27:27;20.40;65.90
75105;DHT22;63688;47.314;8.466;2022-10-04T07:30:01;20.40;66.10
75105;DHT22;63688;47.314;8.466;2022-10-04T07:32:31;20.40;66.40
75105;DHT22;63688;47.314;8.466;2022-10-04T07:35:11;20.30;62.60
75105;DHT22;63688;47.314;8.466;2022-10-04T07:37:55;20.20;59.10
75105;DHT22;63688;47.314;8.466;2022-10-04T07:40:31;20.00;57.70
75105;DHT22;63688;47.314;8.466;2022-10-04T07:43:05;19.90;57.20
75105;DHT22;63688;47.314;8.466;2022-10-04T07:45:40;19.70;55.60
75105;DHT22;63688;47.314;8.466;2022-10-04T07:48:15;19.60;56.00
75105;DHT22;63688;47.314;8.466;2022-10-04T07:50:57;19.50;55.90
75105;DHT22;63688;47.314;8.466;2022-10-04T07:53:45;19.20;55.20
75105;DHT22;63688;47.314;8.466;2022-10-04T07:56:21;19.00;56.50
75105;DHT22;63688;47.314;8.466;2022-10-04T07:59:09;19.00;56.90
75105;DHT22;63688;47.314;8.466;2022-10-04T08:01:52;19.00;57.10
75105;DHT22;63688;47.314;8.466;2022-10-04T08:04:36;18.90;56.80
75105;DHT22;63688;47.314;8.466;2022-10-04T08:07:15;18.90;57.30
75105;DHT22;63688;47.314;8.466;2022-10-04T08:09:59;18.90;57.20
75105;DHT22;63688;47.314;8.466;2022-10-04T08:12:39;18.70;57.40
75105;DHT22;63688;47.314;8.466;2022-10-04T08:15:28;18.60;57.30
75105;DHT22;63688;47.314;8.466;2022-10-04T08:18:16;18.40;58.00
75105;DHT22;63688;47.314;8.466;2022-10-04T08:21:00;18.30;58.30
75105;DHT22;63688;47.314;8.466;2022-10-04T08:23:57;18.30;58.70
75105;DHT22;63688;47.314;8.466;2022-10-04T08:26:51;18.30;58.40
75105;DHT22;63688;47.314;8.466;2022-10-04T08:29:43;18.10;58.50
75105;DHT22;63688;47.314;8.466;2022-10-04T08:32:22;18.00;58.70
75105;DHT22;63688;47.314;8.466;2022-10-04T08:35:14;17.90;59.60
75105;DHT22;63688;47.314;8.466;2022-10-04T08:37:57;17.80;59.90
75105;DHT22;63688;47.314;8.466;2022-10-04T08:47:17;18.10;60.50
75105;DHT22;63688;47.314;8.466;2022-10-04T08:53:28;18.60;60.10
75105;DHT22;63688;47.314;8.466;2022-10-04T08:56:14;18.80;61.20
75105;DHT22;63688;47.314;8.466;2022-10-04T08:59:10;18.90;63.10
75105;DHT22;63688;47.314;8.466;2022-10-04T09:02:02;19.00;66.20
75105;DHT22;63688;47.314;8.466;2022-10-04T09:05:12;19.20;66.50
75105;DHT22;63688;47.314;8.466;2022-10-04T09:08:18;19.30;66.60
75105;DHT22;63688;47.314;8.466;2022-10-04T09:11:28;19.40;65.50
75105;DHT22;63688;47.314;8.466;2022-10-04T09:17:31;19.50;63.20
75105;DHT22;63688;47.314;8.466;2022-10-04T09:20:27;19.50;62.50
75105;DHT22;63688;47.314;8.466;2022-10-04T09:23:11;19.50;62.30
75105;DHT22;63688;47.314;8.466;2022-10-04T09:25:54;19.60;62.10
75105;DHT22;63688;47.314;8.466;2022-10-04T09:35:19;19.70;62.30
75105;DHT22;63688;47.314;8.466;2022-10-04T09:44:31;19.80;61.80
75105;DHT22;63688;47.314;8.466;2022-10-04T10:00:12;20.00;61.70
75105;DHT22;63688;47.314;8.466;2022-10-04T10:06:26;20.00;61.40
75105;DHT22;63688;47.314;8.466;2022-10-04T10:09:13;20.00;61.40
75105;DHT22;63688;47.314;8.466;2022-10-04T10:18:41;20.10;61.50
75105;DHT22;63688;47.314;8.466;2022-10-04T10:25:01;20.10;61.50
75105;DHT22;63688;47.314;8.466;2022-10-04T10:31:10;20.10;61.50
75105;DHT22;63688;47.314;8.466;2022-10-04T10:37:12;20.20;61.50
75105;DHT22;63688;47.314;8.466;2022-10-04T10:46:19;20.20;61.50
75105;DHT22;63688;47.314;8.466;2022-10-04T11:04:50;20.20;61.80
75105;DHT22;63688;47.314;8.466;2022-10-04T11:10:59;20.20;61.90
75105;DHT22;63688;47.314;8.466;2022-10-04T11:17:17;20.20;62.40
75105;DHT22;63688;47.314;8.466;2022-10-04T11:20:02;20.30;63.20
75105;DHT22;63688;47.314;8.466;2022-10-04T11:23:12;20.30;63.60
75105;DHT22;63688;47.314;8.466;2022-10-04T11:29:53;20.30;64.60
75105;DHT22;63688;47.314;8.466;2022-10-04T11:33:07;20.30;67.60
75105;DHT22;63688;47.314;8.466;2022-10-04T11:39:20;20.30;67.80
75105;DHT22;63688;47.314;8.466;2022-10-04T11:48:27;20.40;67.50
75105;DHT22;63688;47.314;8.466;2022-10-04T11:54:40;20.40;66.80
75105;DHT22;63688;47.314;8.466;2022-10-04T11:57:32;20.40;66.40
75105;DHT22;63688;47.314;8.466;2022-10-04T12:00:10;20.40;66.20
75105;DHT22;63688;47.314;8.466;2022-10-04T12:06:15;20.40;65.80
75105;DHT22;63688;47.314;8.466;2022-10-04T12:15:29;20.40;65.20
75105;DHT22;63688;47.314;8.466;2022-10-04T13:37:24;20.80;63.80
75105;DHT22;63688;47.314;8.466;2022-10-04T13:57:47;20.90;61.10
75105;DHT22;63688;47.314;8.466;2022-10-04T14:00:37;20.90;61.40
75105;DHT22;63688;47.314;8.466;2022-10-04T14:03:26;20.90;60.80
75105;DHT22;63688;47.314;8.466;2022-10-04T14:09:38;20.80;60.10
75105;DHT22;63688;47.314;8.466;2022-10-04T14:25:27;20.90;59.70
75105;DHT22;63688;47.314;8.466;2022-10-04T14:31:31;21.00;60.20
75105;DHT22;63688;47.314;8.466;2022-10-04T14:44:14;21.00;59.50
75105;DHT22;63688;47.314;8.466;2022-10-04T14:46:58;21.00;59.50
75105;DHT22;63688;47.314;8.466;2022-10-04T14:50:00;21.00;59.30
75105;DHT22;63688;47.314;8.466;2022-10-04T14:56:19;21.00;58.60
75105;DHT22;63688;47.314;8.466;2022-10-04T14:59:26;21.00;59.10
75105;DHT22;63688;47.314;8.466;2022-10-04T15:02:18;21.00;59.00
75105;DHT22;63688;47.314;8.466;2022-10-04T15:10:48;21.00;58.50
75105;DHT22;63688;47.314;8.466;2022-10-04T15:13:33;21.00;58.80
75105;DHT22;63688;47.314;8.466;2022-10-04T15:16:30;21.00;58.90
75105;DHT22;63688;47.314;8.466;2022-10-04T15:22:22;21.00;58.60
75105;DHT22;63688;47.314;8.466;2022-10-04T15:24:55;21.00;58.90
75105;DHT22;63688;47.314;8.466;2022-10-04T15:27:48;21.00;59.00
75105;DHT22;63688;47.314;8.466;2022-10-04T15:30:46;21.00;58.70
75105;DHT22;63688;47.314;8.466;2022-10-04T15:33:31;21.00;59.00
75105;DHT22;63688;47.314;8.466;2022-10-04T15:39:39;21.00;58.80
75105;DHT22;63688;47.314;8.466;2022-10-04T15:42:26;21.00;58.50
75105;DHT22;63688;47.314;8.466;2022-10-04T15:45:30;21.10;58.40
75105;DHT22;63688;47.314;8.466;2022-10-04T15:48:45;21.10;58.80
75105;DHT22;63688;47.314;8.466;2022-10-04T15:51:34;21.10;59.10
75105;DHT22;63688;47.314;8.466;2022-10-04T16:12:19;21.10;59.40
75105;DHT22;63688;47.314;8.466;2022-10-04T16:18:26;21.10;58.80
75105;DHT22;63688;47.314;8.466;2022-10-04T16:21:24;21.00;58.90
75105;DHT22;63688;47.314;8.466;2022-10-04T16:27:39;21.00;59.30
75105;DHT22;63688;47.314;8.466;2022-10-04T16:33:31;21.00;59.70
75105;DHT22;63688;47.314;8.466;2022-10-04T16:39:39;21.00;59.90
75105;DHT22;63688;47.314;8.466;2022-10-04T16:42:55;21.00;59.90
75105;DHT22;63688;47.314;8.466;2022-10-04T16:45:47;21.00;60.10
75105;DHT22;63688;47.314;8.466;2022-10-04T16:48:47;21.00;60.20
75105;DHT22;63688;47.314;8.466;2022-10-04T17:00:33;21.00;60.70
75105;DHT22;63688;47.314;8.466;2022-10-04T17:03:30;21.00;60.70
75105;DHT22;63688;47.314;8.466;2022-10-04T17:06:27;21.00;60.80
75105;DHT22;63688;47.314;8.466;2022-10-04T17:18:16;20.90;60.90
75105;DHT22;63688;47.314;8.466;2022-10-04T17:24:14;20.90;61.10
75105;DHT22;63688;47.314;8.466;2022-10-04T17:29:52;20.90;61.20
75105;DHT22;63688;47.314;8.466;2022-10-04T17:32:33;20.90;61.20
75105;DHT22;63688;47.314;8.466;2022-10-04T17:38:39;20.90;61.50
75105;DHT22;63688;47.314;8.466;2022-10-04T17:44:40;20.90;61.50
75105;DHT22;63688;47.314;8.466;2022-10-04T17:47:32;20.90;61.50
75105;DHT22;63688;47.314;8.466;2022-10-04T17:50:49;20.90;61.50
75105;DHT22;63688;47.314;8.466;2022-10-04T17:53:43;20.90;61.40
75105;DHT22;63688;47.314;8.466;2022-10-04T17:59:40;20.90;61.30
75105;DHT22;63688;47.314;8.466;2022-10-04T18:05:46;20.90;61.30
75105;DHT22;63688;47.314;8.466;2022-10-04T18:08:44;20.90;61.20
75105;DHT22;63688;47.314;8.466;2022-10-04T18:14:44;20.90;62.10
75105;DHT22;63688;47.314;8.466;2022-10-04T18:17:26;20.90;62.30
75105;DHT22;63688;47.314;8.466;2022-10-04T18:20:24;20.90;62.50
75105;DHT22;63688;47.314;8.466;2022-10-04T18:26:16;20.90;62.80
75105;DHT22;63688;47.314;8.466;2022-10-04T18:48:16;20.90;63.20
75105;DHT22;63688;47.314;8.466;2022-10-04T18:59:25;20.80;63.20
75105;DHT22;63688;47.314;8.466;2022-10-04T19:02:19;20.90;63.40
75105;DHT22;63688;47.314;8.466;2022-10-04T19:05:30;20.80;63.30
75105;DHT22;63688;47.314;8.466;2022-10-04T19:08:12;20.80;63.30
75105;DHT22;63688;47.314;8.466;2022-10-04T19:11:02;20.80;63.40
75105;DHT22;63688;47.314;8.466;2022-10-04T19:13:40;20.80;63.50
75105;DHT22;63688;47.314;8.466;2022-10-04T19:16:28;20.90;63.60
75105;DHT22;63688;47.314;8.466;2022-10-04T19:19:22;20.80;63.50
75105;DHT22;63688;47.314;8.466;2022-10-04T19:25:34;20.80;63.60
75105;DHT22;63688;47.314;8.466;2022-10-04T19:28:12;20.80;63.70
75105;DHT22;63688;47.314;8.466;2022-10-04T19:40:41;20.80;63.70
75105;DHT22;63688;47.314;8.466;2022-10-04T19:46:37;20.80;63.70
75105;DHT22;63688;47.314;8.466;2022-10-04T19:52:25;20.80;63.80
75105;DHT22;63688;47.314;8.466;2022-10-04T19:55:04;20.80;63.80
75105;DHT22;63688;47.314;8.466;2022-10-04T19:57:49;20.80;63.90
75105;DHT22;63688;47.314;8.466;2022-10-04T20:05:31;20.70;63.90
75105;DHT22;63688;47.314;8.466;2022-10-04T20:36:08;20.70;64.00
75105;DHT22;63688;47.314;8.466;2022-10-04T20:38:55;20.70;64.00
75105;DHT22;63688;47.314;8.466;2022-10-04T20:41:44;20.70;64.00
75105;DHT22;63688;47.314;8.466;2022-10-04T20:44:52;20.70;64.00
75105;DHT22;63688;47.314;8.466;2022-10-04T20:47:44;20.70;64.00
75105;DHT22;63688;47.314;8.466;2022-10-04T20:50:35;20.70;64.00
75105;DHT22;63688;47.314;8.466;2022-10-04T20:59:36;20.70;64.10
75105;DHT22;63688;47.314;8.466;2022-10-04T21:05:22;20.70;64.00
75105;DHT22;63688;47.314;8.466;2022-10-04T21:11:18;20.70;63.90
75105;DHT22;63688;47.314;8.466;2022-10-04T21:17:38;20.70;64.90
75105;DHT22;63688;47.314;8.466;2022-10-04T21:22:44;20.70;64.40
75105;DHT22;63688;47.314;8.466;2022-10-04T21:25:46;20.70;64.40
75105;DHT22;63688;47.314;8.466;2022-10-04T21:28:36;20.70;64.40
75105;DHT22;63688;47.314;8.466;2022-10-04T21:45:30;20.70;64.60
75105;DHT22;63688;47.314;8.466;2022-10-04T21:48:11;20.60;64.60
75105;DHT22;63688;47.314;8.466;2022-10-04T21:50:46;20.70;64.60
75105;DHT22;63688;47.314;8.466;2022-10-04T21:56:14;20.60;64.60
75105;DHT22;63688;47.314;8.466;2022-10-04T21:58:46;20.60;64.60
75105;DHT22;63688;47.314;8.466;2022-10-04T22:01:23;20.60;64.60
75105;DHT22;63688;47.314;8.466;2022-10-04T22:03:54;20.60;64.60
75105;DHT22;63688;47.314;8.466;2022-10-04T22:09:35;20.70;64.70
75105;DHT22;63688;47.314;8.466;2022-10-04T22:18:08;20.60;64.80
75105;DHT22;63688;47.314;8.466;2022-10-04T22:20:41;20.60;64.80
75105;DHT22;63688;47.314;8.466;2022-10-04T22:26:25;20.60;69.00
75105;DHT22;63688;47.314;8.466;2022-10-04T22:35:23;20.60;67.10
75105;DHT22;63688;47.314;8.466;2022-10-04T22:37:55;20.60;67.80
75105;DHT22;63688;47.314;8.466;2022-10-04T22:40:28;20.60;68.20
75105;DHT22;63688;47.314;8.466;2022-10-04T22:42:59;20.60;68.10
75105;DHT22;63688;47.314;8.466;2022-10-04T22:48:42;20.70;68.60
75105;DHT22;63688;47.314;8.466;2022-10-04T22:54:33;20.70;68.70
75105;DHT22;63688;47.314;8.466;2022-10-04T22:57:07;20.70;68.80
75105;DHT22;63688;47.314;8.466;2022-10-04T23:05:37;20.60;68.90
75105;DHT22;63688;47.314;8.466;2022-10-04T23:08:32;20.60;69.10
75105;DHT22;63688;47.314;8.466;2022-10-04T23:11:09;20.60;69.10
75105;DHT22;63688;47.314;8.466;2022-10-04T23:16:53;20.60;69.50
75105;DHT22;63688;47.314;8.466;2022-10-04T23:19:31;20.60;69.50
75105;DHT22;63688;47.314;8.466;2022-10-04T23:22:08;20.60;69.40
75105;DHT22;63688;47.314;8.466;2022-10-04T23:31:11;20.50;69.60
75105;DHT22;63688;47.314;8.466;2022-10-04T23:34:09;20.50;69.60
75105;DHT22;63688;47.314;8.466;2022-10-04T23:36:52;20.50;69.80
75105;DHT22;63688;47.314;8.466;2022-10-04T23:42:35;20.50;69.90
75105;DHT22;63688;47.314;8.466;2022-10-04T23:50:51;20.40;70.00
75105;DHT22;63688;47.314;8.466;2022-10-04T23:53:26;20.40;70.00
75105;DHT22;63688;47.314;8.466;2022-10-04T23:56:02;20.50;70.10
75105;DHT22;63688;47.314;8.466;2022-10-04T23:58:50;20.40;70.00
